sensor_id;sensor_type;location;lat;lon;timestamp;P1;durP1;ratioP1;P2;durP2;ratioP2
50495;SDS011;38806;51.554;5.704;2022-12-29T00:01:57;5.47;;;2.75;;
50495;SDS011;38806;51.554;5.704;2022-12-29T00:03:57;5.47;;;2.10;;
50495;SDS011;38806;51.554;5.704;2022-12-29T00:05:57;3.03;;;1.52;;
50495;SDS011;38806;51.554;5.704;2022-12-29T00:07:58;6.50;;;2.50;;
50495;SDS011;38806;51.554;5.704;2022-12-29T00:09:58;3.38;;;1.48;;
50495;SDS011;38806;51.554;5.704;2022-12-29T00:11:58;2.75;;;1.75;;
50495;SDS011;38806;51.554;5.704;2022-12-29T00:13:59;3.05;;;1.08;;
50495;SDS011;38806;51.554;5.704;2022-12-29T00:16:25;2.75;;;0.93;;
50495;SDS011;38806;51.554;5.704;2022-12-29T00:18:26;4.28;;;0.90;;
50495;SDS011;38806;51.554;5.704;2022-12-29T00:20:26;2.90;;;1.02;;
50495;SDS011;38806;51.554;5.704;2022-12-29T00:22:45;3.25;;;1.45;;
50495;SDS011;38806;51.554;5.704;2022-12-29T00:25:04;2.55;;;0.80;;
50495;SDS011;38806;51.554;5.704;2022-12-29T00:29:24;2.10;;;0.73;;
50495;SDS011;38806;51.554;5.704;2022-12-29T00:31:42;1.40;;;0.52;;
50495;SDS011;38806;51.554;5.704;2022-12-29T00:34:01;2.28;;;0.90;;
50495;SDS011;38806;51.554;5.704;2022-12-29T00:36:31;3.13;;;1.48;;
50495;SDS011;38806;51.554;5.704;2022-12-29T00:38:32;4.82;;;1.02;;
50495;SDS011;38806;51.554;5.704;2022-12-29T00:40:52;3.42;;;0.90;;
50495;SDS011;38806;51.554;5.704;2022-12-29T00:43:11;3.88;;;1.35;;
50495;SDS011;38806;51.554;5.704;2022-12-29T00:45:30;4.43;;;2.45;;
50495;SDS011;38806;51.554;5.704;2022-12-29T00:47:30;4.53;;;2.70;;
50495;SDS011;38806;51.554;5.704;2022-12-29T00:49:31;5.60;;;3.95;;
50495;SDS011;38806;51.554;5.704;2022-12-29T00:51:31;5.70;;;3.30;;
50495;SDS011;38806;51.554;5.704;2022-12-29T00:53:31;8.25;;;4.28;;
50495;SDS011;38806;51.554;5.704;2022-12-29T00:55:35;11.07;;;5.03;;
50495;SDS011;38806;51.554;5.704;2022-12-29T00:57:36;7.70;;;4.13;;
50495;SDS011;38806;51.554;5.704;2022-12-29T00:59:36;7.90;;;4.57;;
50495;SDS011;38806;51.554;5.704;2022-12-29T01:01:37;6.50;;;3.70;;
50495;SDS011;38806;51.554;5.704;2022-12-29T01:03:38;7.97;;;3.80;;
50495;SDS011;38806;51.554;5.704;2022-12-29T01:05:38;5.55;;;3.63;;
50495;SDS011;38806;51.554;5.704;2022-12-29T01:07:38;9.25;;;5.35;;
50495;SDS011;38806;51.554;5.704;2022-12-29T01:09:38;6.57;;;3.42;;
50495;SDS011;38806;51.554;5.704;2022-12-29T01:11:57;6.57;;;3.80;;
50495;SDS011;38806;51.554;5.704;2022-12-29T01:13:57;6.32;;;3.42;;
50495;SDS011;38806;51.554;5.704;2022-12-29T01:15:58;9.25;;;3.10;;
50495;SDS011;38806;51.554;5.704;2022-12-29T01:17:58;8.30;;;2.65;;
50495;SDS011;38806;51.554;5.704;2022-12-29T01:19:58;4.57;;;2.30;;
50495;SDS011;38806;51.554;5.704;2022-12-29T01:21:59;5.63;;;2.45;;
50495;SDS011;38806;51.554;5.704;2022-12-29T01:23:59;3.78;;;2.47;;
50495;SDS011;38806;51.554;5.704;2022-12-29T01:26:07;4.10;;;2.17;;
50495;SDS011;38806;51.554;5.704;2022-12-29T01:28:08;6.03;;;2.25;;
50495;SDS011;38806;51.554;5.704;2022-12-29T01:30:08;4.20;;;2.20;;
50495;SDS011;38806;51.554;5.704;2022-12-29T01:32:08;4.30;;;2.00;;
50495;SDS011;38806;51.554;5.704;2022-12-29T01:34:09;3.83;;;1.88;;
50495;SDS011;38806;51.554;5.704;2022-12-29T01:36:10;4.25;;;1.58;;
50495;SDS011;38806;51.554;5.704;2022-12-29T01:38:10;3.25;;;1.70;;
50495;SDS011;38806;51.554;5.704;2022-12-29T01:40:11;3.25;;;1.55;;
50495;SDS011;38806;51.554;5.704;2022-12-29T01:42:14;2.60;;;1.27;;
50495;SDS011;38806;51.554;5.704;2022-12-29T01:46:37;3.20;;;1.63;;
50495;SDS011;38806;51.554;5.704;2022-12-29T01:48:38;3.17;;;1.35;;
50495;SDS011;38806;51.554;5.704;2022-12-29T01:50:43;2.90;;;1.58;;
50495;SDS011;38806;51.554;5.704;2022-12-29T01:53:21;3.20;;;1.08;;
50495;SDS011;38806;51.554;5.704;2022-12-29T01:55:13;3.70;;;1.25;;
50495;SDS011;38806;51.554;5.704;2022-12-29T01:57:16;3.03;;;1.20;;
50495;SDS011;38806;51.554;5.704;2022-12-29T01:59:18;3.13;;;1.02;;
50495;SDS011;38806;51.554;5.704;2022-12-29T02:01:19;4.88;;;1.77;;
50495;SDS011;38806;51.554;5.704;2022-12-29T02:03:20;3.40;;;1.38;;
50495;SDS011;38806;51.554;5.704;2022-12-29T02:07:24;7.75;;;1.15;;
50495;SDS011;38806;51.554;5.704;2022-12-29T02:09:27;3.75;;;0.77;;
50495;SDS011;38806;51.554;5.704;2022-12-29T02:11:27;3.33;;;0.75;;
50495;SDS011;38806;51.554;5.704;2022-12-29T02:13:28;4.35;;;0.85;;
50495;SDS011;38806;51.554;5.704;2022-12-29T02:24:19;3.10;;;1.00;;
50495;SDS011;38806;51.554;5.704;2022-12-29T02:30:58;2.38;;;0.70;;
50495;SDS011;38806;51.554;5.704;2022-12-29T02:33:04;10.02;;;1.52;;
50495;SDS011;38806;51.554;5.704;2022-12-29T02:35:14;5.57;;;0.90;;
50495;SDS011;38806;51.554;5.704;2022-12-29T02:37:37;2.70;;;0.80;;
50495;SDS011;38806;51.554;5.704;2022-12-29T02:39:57;5.30;;;1.10;;
50495;SDS011;38806;51.554;5.704;2022-12-29T02:42:10;5.18;;;1.70;;
50495;SDS011;38806;51.554;5.704;2022-12-29T02:46:32;8.02;;;1.20;;
50495;SDS011;38806;51.554;5.704;2022-12-29T02:50:38;2.35;;;0.98;;
50495;SDS011;38806;51.554;5.704;2022-12-29T02:52:42;2.33;;;0.80;;
50495;SDS011;38806;51.554;5.704;2022-12-29T02:54:44;2.67;;;0.90;;
50495;SDS011;38806;51.554;5.704;2022-12-29T02:56:44;4.85;;;1.05;;
50495;SDS011;38806;51.554;5.704;2022-12-29T02:58:44;2.72;;;1.05;;
50495;SDS011;38806;51.554;5.704;2022-12-29T03:00:51;3.60;;;0.85;;
50495;SDS011;38806;51.554;5.704;2022-12-29T03:02:57;4.07;;;0.98;;
50495;SDS011;38806;51.554;5.704;2022-12-29T03:09:57;3.75;;;1.02;;
50495;SDS011;38806;51.554;5.704;2022-12-29T03:12:14;2.33;;;0.80;;
50495;SDS011;38806;51.554;5.704;2022-12-29T03:14:28;4.65;;;1.05;;
50495;SDS011;38806;51.554;5.704;2022-12-29T03:16:51;2.83;;;1.10;;
50495;SDS011;38806;51.554;5.704;2022-12-29T03:21:17;4.55;;;0.98;;
50495;SDS011;38806;51.554;5.704;2022-12-29T03:23:19;3.10;;;0.85;;
50495;SDS011;38806;51.554;5.704;2022-12-29T03:25:25;5.18;;;1.10;;
50495;SDS011;38806;51.554;5.704;2022-12-29T03:27:32;2.22;;;0.90;;
50495;SDS011;38806;51.554;5.704;2022-12-29T03:29:35;7.00;;;2.05;;
50495;SDS011;38806;51.554;5.704;2022-12-29T03:31:37;4.53;;;1.00;;
50495;SDS011;38806;51.554;5.704;2022-12-29T03:33:38;1.55;;;0.65;;
50495;SDS011;38806;51.554;5.704;2022-12-29T03:35:40;3.47;;;1.02;;
50495;SDS011;38806;51.554;5.704;2022-12-29T03:37:42;2.05;;;0.80;;
50495;SDS011;38806;51.554;5.704;2022-12-29T03:39:44;5.25;;;1.15;;
50495;SDS011;38806;51.554;5.704;2022-12-29T03:41:45;11.30;;;1.77;;
50495;SDS011;38806;51.554;5.704;2022-12-29T03:43:45;7.95;;;1.75;;
50495;SDS011;38806;51.554;5.704;2022-12-29T03:45:46;6.32;;;1.05;;
50495;SDS011;38806;51.554;5.704;2022-12-29T03:47:46;1.98;;;0.90;;
50495;SDS011;38806;51.554;5.704;2022-12-29T03:49:47;5.78;;;1.80;;
50495;SDS011;38806;51.554;5.704;2022-12-29T03:51:47;2.28;;;1.23;;
50495;SDS011;38806;51.554;5.704;2022-12-29T03:53:47;2.28;;;0.47;;
50495;SDS011;38806;51.554;5.704;2022-12-29T03:55:48;4.07;;;1.00;;
50495;SDS011;38806;51.554;5.704;2022-12-29T03:57:49;3.88;;;0.90;;
50495;SDS011;38806;51.554;5.704;2022-12-29T03:59:49;5.75;;;2.05;;
50495;SDS011;38806;51.554;5.704;2022-12-29T04:01:49;2.15;;;0.90;;
50495;SDS011;38806;51.554;5.704;2022-12-29T04:03:49;3.45;;;0.90;;
50495;SDS011;38806;51.554;5.704;2022-12-29T04:05:50;3.65;;;1.02;;
50495;SDS011;38806;51.554;5.704;2022-12-29T04:07:50;2.17;;;1.02;;
50495;SDS011;38806;51.554;5.704;2022-12-29T04:09:50;4.97;;;0.73;;
50495;SDS011;38806;51.554;5.704;2022-12-29T04:11:50;2.67;;;1.15;;
50495;SDS011;38806;51.554;5.704;2022-12-29T04:13:51;4.55;;;0.73;;
50495;SDS011;38806;51.554;5.704;2022-12-29T04:15:51;3.00;;;0.98;;
50495;SDS011;38806;51.554;5.704;2022-12-29T04:17:51;6.18;;;0.55;;
50495;SDS011;38806;51.554;5.704;2022-12-29T04:19:51;4.28;;;1.17;;
50495;SDS011;38806;51.554;5.704;2022-12-29T04:22:11;10.25;;;1.48;;
50495;SDS011;38806;51.554;5.704;2022-12-29T04:24:12;6.30;;;1.05;;
50495;SDS011;38806;51.554;5.704;2022-12-29T04:26:12;7.43;;;1.30;;
50495;SDS011;38806;51.554;5.704;2022-12-29T04:28:13;3.30;;;1.00;;
50495;SDS011;38806;51.554;5.704;2022-12-29T04:30:13;4.60;;;1.10;;
50495;SDS011;38806;51.554;5.704;2022-12-29T04:32:14;3.45;;;1.17;;
50495;SDS011;38806;51.554;5.704;2022-12-29T04:34:14;2.65;;;1.10;;
50495;SDS011;38806;51.554;5.704;2022-12-29T04:36:14;9.90;;;4.32;;
50495;SDS011;38806;51.554;5.704;2022-12-29T04:38:14;5.22;;;1.02;;
50495;SDS011;38806;51.554;5.704;2022-12-29T04:40:15;2.30;;;0.65;;
50495;SDS011;38806;51.554;5.704;2022-12-29T04:42:15;5.35;;;0.95;;
50495;SDS011;38806;51.554;5.704;2022-12-29T04:44:15;2.78;;;0.70;;
50495;SDS011;38806;51.554;5.704;2022-12-29T04:46:15;10.73;;;1.15;;
50495;SDS011;38806;51.554;5.704;2022-12-29T04:48:16;3.42;;;0.60;;
50495;SDS011;38806;51.554;5.704;2022-12-29T04:50:16;4.15;;;0.95;;
50495;SDS011;38806;51.554;5.704;2022-12-29T04:52:16;3.45;;;2.15;;
50495;SDS011;38806;51.554;5.704;2022-12-29T04:54:16;5.00;;;1.10;;
50495;SDS011;38806;51.554;5.704;2022-12-29T04:56:16;7.20;;;1.38;;
50495;SDS011;38806;51.554;5.704;2022-12-29T04:58:17;3.33;;;1.40;;
50495;SDS011;38806;51.554;5.704;2022-12-29T05:00:18;6.75;;;2.35;;
50495;SDS011;38806;51.554;5.704;2022-12-29T05:02:18;5.35;;;1.75;;
50495;SDS011;38806;51.554;5.704;2022-12-29T05:04:18;6.85;;;1.05;;
50495;SDS011;38806;51.554;5.704;2022-12-29T05:06:18;7.05;;;1.30;;
50495;SDS011;38806;51.554;5.704;2022-12-29T05:08:18;4.13;;;1.17;;
50495;SDS011;38806;51.554;5.704;2022-12-29T05:10:19;5.47;;;1.27;;
50495;SDS011;38806;51.554;5.704;2022-12-29T05:12:19;5.53;;;1.13;;
50495;SDS011;38806;51.554;5.704;2022-12-29T05:14:19;8.43;;;2.28;;
50495;SDS011;38806;51.554;5.704;2022-12-29T05:16:19;3.10;;;1.42;;
50495;SDS011;38806;51.554;5.704;2022-12-29T05:18:19;5.72;;;1.23;;
50495;SDS011;38806;51.554;5.704;2022-12-29T05:20:20;6.45;;;1.20;;
50495;SDS011;38806;51.554;5.704;2022-12-29T05:22:20;4.85;;;1.30;;
50495;SDS011;38806;51.554;5.704;2022-12-29T05:24:20;6.90;;;1.65;;
50495;SDS011;38806;51.554;5.704;2022-12-29T05:26:20;3.15;;;1.02;;
50495;SDS011;38806;51.554;5.704;2022-12-29T05:28:21;6.25;;;1.17;;
50495;SDS011;38806;51.554;5.704;2022-12-29T05:30:21;6.50;;;1.05;;
50495;SDS011;38806;51.554;5.704;2022-12-29T05:32:21;6.20;;;1.20;;
50495;SDS011;38806;51.554;5.704;2022-12-29T05:34:21;4.90;;;1.52;;
50495;SDS011;38806;51.554;5.704;2022-12-29T05:36:21;5.03;;;0.73;;
50495;SDS011;38806;51.554;5.704;2022-12-29T05:38:22;6.75;;;1.05;;
50495;SDS011;38806;51.554;5.704;2022-12-29T05:40:22;4.30;;;0.85;;
50495;SDS011;38806;51.554;5.704;2022-12-29T05:42:22;6.65;;;1.30;;
50495;SDS011;38806;51.554;5.704;2022-12-29T05:44:22;3.30;;;0.82;;
50495;SDS011;38806;51.554;5.704;2022-12-29T05:46:23;6.55;;;1.20;;
50495;SDS011;38806;51.554;5.704;2022-12-29T05:48:23;3.72;;;1.45;;
50495;SDS011;38806;51.554;5.704;2022-12-29T05:50:23;9.10;;;1.95;;
50495;SDS011;38806;51.554;5.704;2022-12-29T05:52:23;3.63;;;0.85;;
50495;SDS011;38806;51.554;5.704;2022-12-29T05:54:23;4.38;;;0.80;;
50495;SDS011;38806;51.554;5.704;2022-12-29T05:56:24;4.07;;;0.90;;
50495;SDS011;38806;51.554;5.704;2022-12-29T05:58:24;4.22;;;0.90;;
50495;SDS011;38806;51.554;5.704;2022-12-29T06:00:24;3.83;;;1.35;;
50495;SDS011;38806;51.554;5.704;2022-12-29T06:02:24;5.93;;;1.35;;
50495;SDS011;38806;51.554;5.704;2022-12-29T06:04:24;3.60;;;2.67;;
50495;SDS011;38806;51.554;5.704;2022-12-29T06:06:25;5.05;;;1.05;;
50495;SDS011;38806;51.554;5.704;2022-12-29T06:08:25;3.40;;;1.17;;
50495;SDS011;38806;51.554;5.704;2022-12-29T06:10:25;5.97;;;0.90;;
50495;SDS011;38806;51.554;5.704;2022-12-29T06:12:25;4.53;;;1.42;;
50495;SDS011;38806;51.554;5.704;2022-12-29T06:14:25;4.75;;;1.00;;
50495;SDS011;38806;51.554;5.704;2022-12-29T06:16:26;2.75;;;0.80;;
50495;SDS011;38806;51.554;5.704;2022-12-29T06:18:26;3.97;;;1.52;;
50495;SDS011;38806;51.554;5.704;2022-12-29T06:20:26;5.20;;;1.20;;
50495;SDS011;38806;51.554;5.704;2022-12-29T06:22:26;5.55;;;1.13;;
50495;SDS011;38806;51.554;5.704;2022-12-29T06:24:26;5.88;;;1.20;;
50495;SDS011;38806;51.554;5.704;2022-12-29T06:26:26;4.50;;;1.25;;
50495;SDS011;38806;51.554;5.704;2022-12-29T06:28:27;5.45;;;1.00;;
50495;SDS011;38806;51.554;5.704;2022-12-29T06:30:27;6.32;;;1.08;;
50495;SDS011;38806;51.554;5.704;2022-12-29T06:32:27;6.57;;;1.38;;
50495;SDS011;38806;51.554;5.704;2022-12-29T06:34:27;7.30;;;1.38;;
50495;SDS011;38806;51.554;5.704;2022-12-29T06:36:28;4.30;;;0.95;;
50495;SDS011;38806;51.554;5.704;2022-12-29T06:38:28;4.00;;;1.30;;
50495;SDS011;38806;51.554;5.704;2022-12-29T06:40:28;3.80;;;0.98;;
50495;SDS011;38806;51.554;5.704;2022-12-29T06:42:28;8.38;;;1.42;;
50495;SDS011;38806;51.554;5.704;2022-12-29T06:44:28;5.28;;;1.73;;
50495;SDS011;38806;51.554;5.704;2022-12-29T06:46:29;3.70;;;0.85;;
50495;SDS011;38806;51.554;5.704;2022-12-29T06:48:29;9.15;;;2.50;;
50495;SDS011;38806;51.554;5.704;2022-12-29T06:50:29;6.60;;;4.38;;
50495;SDS011;38806;51.554;5.704;2022-12-29T06:52:29;5.03;;;1.60;;
50495;SDS011;38806;51.554;5.704;2022-12-29T06:54:30;3.95;;;1.23;;
50495;SDS011;38806;51.554;5.704;2022-12-29T06:56:30;2.95;;;0.80;;
50495;SDS011;38806;51.554;5.704;2022-12-29T06:58:30;7.85;;;1.75;;
50495;SDS011;38806;51.554;5.704;2022-12-29T07:00:30;8.45;;;1.30;;
50495;SDS011;38806;51.554;5.704;2022-12-29T07:02:31;5.85;;;1.48;;
50495;SDS011;38806;51.554;5.704;2022-12-29T07:04:31;6.97;;;1.88;;
50495;SDS011;38806;51.554;5.704;2022-12-29T07:06:31;5.60;;;1.20;;
50495;SDS011;38806;51.554;5.704;2022-12-29T07:08:31;9.45;;;1.38;;
50495;SDS011;38806;51.554;5.704;2022-12-29T07:10:31;5.50;;;1.30;;
50495;SDS011;38806;51.554;5.704;2022-12-29T07:12:32;7.82;;;1.92;;
50495;SDS011;38806;51.554;5.704;2022-12-29T07:14:32;4.93;;;1.60;;
50495;SDS011;38806;51.554;5.704;2022-12-29T07:16:32;5.78;;;1.30;;
50495;SDS011;38806;51.554;5.704;2022-12-29T07:18:34;4.65;;;1.45;;
50495;SDS011;38806;51.554;5.704;2022-12-29T07:20:34;7.30;;;1.60;;
50495;SDS011;38806;51.554;5.704;2022-12-29T07:22:35;6.25;;;1.85;;
50495;SDS011;38806;51.554;5.704;2022-12-29T07:24:35;9.95;;;2.53;;
50495;SDS011;38806;51.554;5.704;2022-12-29T07:26:35;9.88;;;2.88;;
50495;SDS011;38806;51.554;5.704;2022-12-29T07:28:36;13.07;;;1.80;;
50495;SDS011;38806;51.554;5.704;2022-12-29T07:30:37;9.85;;;1.92;;
50495;SDS011;38806;51.554;5.704;2022-12-29T07:32:38;6.57;;;2.72;;
50495;SDS011;38806;51.554;5.704;2022-12-29T07:34:38;8.27;;;1.40;;
50495;SDS011;38806;51.554;5.704;2022-12-29T07:36:39;12.48;;;2.58;;
50495;SDS011;38806;51.554;5.704;2022-12-29T07:38:40;7.43;;;1.52;;
50495;SDS011;38806;51.554;5.704;2022-12-29T07:40:40;8.35;;;1.45;;
50495;SDS011;38806;51.554;5.704;2022-12-29T07:42:40;5.65;;;2.03;;
50495;SDS011;38806;51.554;5.704;2022-12-29T07:44:40;13.40;;;2.05;;
50495;SDS011;38806;51.554;5.704;2022-12-29T07:46:40;7.38;;;1.38;;
50495;SDS011;38806;51.554;5.704;2022-12-29T07:48:41;6.13;;;2.25;;
50495;SDS011;38806;51.554;5.704;2022-12-29T07:50:41;5.95;;;1.90;;
50495;SDS011;38806;51.554;5.704;2022-12-29T07:52:41;4.65;;;1.70;;
50495;SDS011;38806;51.554;5.704;2022-12-29T07:54:41;7.18;;;1.80;;
50495;SDS011;38806;51.554;5.704;2022-12-29T07:56:41;14.38;;;2.17;;
50495;SDS011;38806;51.554;5.704;2022-12-29T07:58:42;10.25;;;2.72;;
50495;SDS011;38806;51.554;5.704;2022-12-29T08:00:42;8.35;;;2.15;;
50495;SDS011;38806;51.554;5.704;2022-12-29T08:02:42;8.77;;;1.50;;
50495;SDS011;38806;51.554;5.704;2022-12-29T08:04:42;9.75;;;3.15;;
50495;SDS011;38806;51.554;5.704;2022-12-29T08:06:43;8.48;;;2.72;;
50495;SDS011;38806;51.554;5.704;2022-12-29T08:08:45;5.80;;;2.20;;
50495;SDS011;38806;51.554;5.704;2022-12-29T08:10:45;7.40;;;2.35;;
50495;SDS011;38806;51.554;5.704;2022-12-29T08:12:45;9.68;;;2.10;;
50495;SDS011;38806;51.554;5.704;2022-12-29T08:14:45;8.35;;;2.22;;
50495;SDS011;38806;51.554;5.704;2022-12-29T08:16:46;10.82;;;3.88;;
50495;SDS011;38806;51.554;5.704;2022-12-29T08:18:46;9.85;;;2.28;;
50495;SDS011;38806;51.554;5.704;2022-12-29T08:20:46;6.63;;;1.98;;
50495;SDS011;38806;51.554;5.704;2022-12-29T08:22:46;5.03;;;1.52;;
50495;SDS011;38806;51.554;5.704;2022-12-29T08:24:46;5.28;;;1.58;;
50495;SDS011;38806;51.554;5.704;2022-12-29T08:26:47;8.13;;;2.65;;
50495;SDS011;38806;51.554;5.704;2022-12-29T08:28:47;8.38;;;2.42;;
50495;SDS011;38806;51.554;5.704;2022-12-29T08:30:47;8.48;;;2.10;;
50495;SDS011;38806;51.554;5.704;2022-12-29T08:32:47;11.18;;;2.67;;
50495;SDS011;38806;51.554;5.704;2022-12-29T08:34:47;4.60;;;1.45;;
50495;SDS011;38806;51.554;5.704;2022-12-29T08:36:48;6.35;;;2.20;;
50495;SDS011;38806;51.554;5.704;2022-12-29T08:38:48;10.70;;;3.30;;
50495;SDS011;38806;51.554;5.704;2022-12-29T08:40:48;12.65;;;2.30;;
50495;SDS011;38806;51.554;5.704;2022-12-29T08:42:48;7.75;;;2.65;;
50495;SDS011;38806;51.554;5.704;2022-12-29T08:44:49;8.23;;;1.70;;
50495;SDS011;38806;51.554;5.704;2022-12-29T08:46:49;9.88;;;1.90;;
50495;SDS011;38806;51.554;5.704;2022-12-29T08:48:49;7.28;;;1.77;;
50495;SDS011;38806;51.554;5.704;2022-12-29T08:50:49;6.93;;;1.73;;
50495;SDS011;38806;51.554;5.704;2022-12-29T08:52:50;9.40;;;1.75;;
50495;SDS011;38806;51.554;5.704;2022-12-29T08:54:50;16.10;;;2.42;;
50495;SDS011;38806;51.554;5.704;2022-12-29T08:56:50;10.85;;;2.30;;
50495;SDS011;38806;51.554;5.704;2022-12-29T08:58:51;9.80;;;2.17;;
50495;SDS011;38806;51.554;5.704;2022-12-29T09:00:52;5.00;;;1.60;;
50495;SDS011;38806;51.554;5.704;2022-12-29T09:02:53;7.32;;;2.53;;
50495;SDS011;38806;51.554;5.704;2022-12-29T09:04:53;6.67;;;2.10;;
50495;SDS011;38806;51.554;5.704;2022-12-29T09:06:54;8.20;;;2.55;;
50495;SDS011;38806;51.554;5.704;2022-12-29T09:08:54;7.78;;;1.70;;
50495;SDS011;38806;51.554;5.704;2022-12-29T09:10:54;5.45;;;1.77;;
50495;SDS011;38806;51.554;5.704;2022-12-29T09:12:55;11.52;;;2.10;;
50495;SDS011;38806;51.554;5.704;2022-12-29T09:14:55;6.25;;;1.95;;
50495;SDS011;38806;51.554;5.704;2022-12-29T09:16:55;6.50;;;1.70;;
50495;SDS011;38806;51.554;5.704;2022-12-29T09:19:14;6.97;;;1.80;;
50495;SDS011;38806;51.554;5.704;2022-12-29T09:21:14;11.57;;;2.97;;
50495;SDS011;38806;51.554;5.704;2022-12-29T09:23:14;5.75;;;1.85;;
50495;SDS011;38806;51.554;5.704;2022-12-29T09:25:15;13.02;;;3.75;;
50495;SDS011;38806;51.554;5.704;2022-12-29T09:27:15;9.52;;;2.70;;
50495;SDS011;38806;51.554;5.704;2022-12-29T09:29:15;8.65;;;1.65;;
50495;SDS011;38806;51.554;5.704;2022-12-29T09:31:15;10.13;;;2.75;;
50495;SDS011;38806;51.554;5.704;2022-12-29T09:33:16;8.23;;;2.55;;
50495;SDS011;38806;51.554;5.704;2022-12-29T09:35:16;12.82;;;2.45;;
50495;SDS011;38806;51.554;5.704;2022-12-29T09:37:16;8.43;;;2.28;;
50495;SDS011;38806;51.554;5.704;2022-12-29T09:39:16;7.43;;;2.13;;
50495;SDS011;38806;51.554;5.704;2022-12-29T09:44:06;10.77;;;1.65;;
50495;SDS011;38806;51.554;5.704;2022-12-29T09:45:48;6.20;;;1.88;;
50495;SDS011;38806;51.554;5.704;2022-12-29T09:47:49;10.15;;;3.15;;
50495;SDS011;38806;51.554;5.704;2022-12-29T09:49:54;10.60;;;4.50;;
50495;SDS011;38806;51.554;5.704;2022-12-29T09:51:57;7.40;;;2.20;;
50495;SDS011;38806;51.554;5.704;2022-12-29T09:54:00;5.90;;;1.52;;
50495;SDS011;38806;51.554;5.704;2022-12-29T09:56:03;5.57;;;1.60;;
50495;SDS011;38806;51.554;5.704;2022-12-29T09:58:16;7.55;;;1.90;;
50495;SDS011;38806;51.554;5.704;2022-12-29T10:00:20;14.00;;;2.47;;
50495;SDS011;38806;51.554;5.704;2022-12-29T10:04:28;9.10;;;1.90;;
50495;SDS011;38806;51.554;5.704;2022-12-29T10:06:51;5.40;;;2.38;;
50495;SDS011;38806;51.554;5.704;2022-12-29T10:09:15;5.07;;;2.50;;
50495;SDS011;38806;51.554;5.704;2022-12-29T10:11:21;7.70;;;1.80;;
50495;SDS011;38806;51.554;5.704;2022-12-29T10:13:36;7.03;;;1.60;;
50495;SDS011;38806;51.554;5.704;2022-12-29T10:22:19;4.50;;;1.52;;
50495;SDS011;38806;51.554;5.704;2022-12-29T10:24:23;14.48;;;2.10;;
50495;SDS011;38806;51.554;5.704;2022-12-29T10:26:30;3.72;;;1.98;;
50495;SDS011;38806;51.554;5.704;2022-12-29T10:28:42;12.32;;;2.03;;
50495;SDS011;38806;51.554;5.704;2022-12-29T10:30:43;9.93;;;2.78;;
50495;SDS011;38806;51.554;5.704;2022-12-29T10:34:49;6.53;;;2.47;;
50495;SDS011;38806;51.554;5.704;2022-12-29T10:36:54;11.70;;;3.78;;
50495;SDS011;38806;51.554;5.704;2022-12-29T10:41:05;7.88;;;3.13;;
50495;SDS011;38806;51.554;5.704;2022-12-29T10:45:17;9.77;;;1.88;;
50495;SDS011;38806;51.554;5.704;2022-12-29T10:47:20;12.23;;;2.67;;
50495;SDS011;38806;51.554;5.704;2022-12-29T10:49:21;6.68;;;1.95;;
50495;SDS011;38806;51.554;5.704;2022-12-29T10:51:25;8.50;;;3.40;;
50495;SDS011;38806;51.554;5.704;2022-12-29T10:53:27;6.85;;;3.38;;
50495;SDS011;38806;51.554;5.704;2022-12-29T10:55:32;7.53;;;3.15;;
50495;SDS011;38806;51.554;5.704;2022-12-29T10:57:33;10.82;;;2.95;;
50495;SDS011;38806;51.554;5.704;2022-12-29T10:59:35;4.93;;;1.90;;
50495;SDS011;38806;51.554;5.704;2022-12-29T11:01:46;8.40;;;2.92;;
50495;SDS011;38806;51.554;5.704;2022-12-29T11:03:54;9.90;;;2.78;;
50495;SDS011;38806;51.554;5.704;2022-12-29T11:06:04;10.13;;;2.08;;
50495;SDS011;38806;51.554;5.704;2022-12-29T11:08:13;7.75;;;2.08;;
50495;SDS011;38806;51.554;5.704;2022-12-29T11:10:19;10.38;;;3.38;;
50495;SDS011;38806;51.554;5.704;2022-12-29T11:14:21;7.47;;;1.85;;
50495;SDS011;38806;51.554;5.704;2022-12-29T11:16:33;10.85;;;3.58;;
50495;SDS011;38806;51.554;5.704;2022-12-29T11:18:36;7.28;;;1.95;;
50495;SDS011;38806;51.554;5.704;2022-12-29T11:20:40;9.02;;;2.58;;
50495;SDS011;38806;51.554;5.704;2022-12-29T11:22:44;8.93;;;3.70;;
50495;SDS011;38806;51.554;5.704;2022-12-29T11:24:44;7.93;;;2.38;;
50495;SDS011;38806;51.554;5.704;2022-12-29T11:26:45;9.43;;;2.08;;
50495;SDS011;38806;51.554;5.704;2022-12-29T11:28:47;14.60;;;2.70;;
50495;SDS011;38806;51.554;5.704;2022-12-29T11:30:49;9.05;;;3.05;;
50495;SDS011;38806;51.554;5.704;2022-12-29T11:32:58;13.50;;;2.97;;
50495;SDS011;38806;51.554;5.704;2022-12-29T11:35:02;9.75;;;2.78;;
50495;SDS011;38806;51.554;5.704;2022-12-29T11:37:11;10.18;;;2.53;;
50495;SDS011;38806;51.554;5.704;2022-12-29T11:39:23;7.65;;;2.30;;
50495;SDS011;38806;51.554;5.704;2022-12-29T11:41:26;7.47;;;2.55;;
50495;SDS011;38806;51.554;5.704;2022-12-29T11:43:31;9.00;;;2.13;;
50495;SDS011;38806;51.554;5.704;2022-12-29T11:45:34;9.40;;;2.67;;
50495;SDS011;38806;51.554;5.704;2022-12-29T11:47:35;13.73;;;3.60;;
50495;SDS011;38806;51.554;5.704;2022-12-29T11:49:36;9.27;;;3.92;;
50495;SDS011;38806;51.554;5.704;2022-12-29T11:51:39;7.18;;;1.80;;
50495;SDS011;38806;51.554;5.704;2022-12-29T11:55:50;8.30;;;2.67;;
50495;SDS011;38806;51.554;5.704;2022-12-29T11:57:50;9.02;;;2.83;;
50495;SDS011;38806;51.554;5.704;2022-12-29T11:59:52;12.80;;;2.88;;
50495;SDS011;38806;51.554;5.704;2022-12-29T12:01:55;11.07;;;3.40;;
50495;SDS011;38806;51.554;5.704;2022-12-29T12:04:01;14.88;;;2.75;;
50495;SDS011;38806;51.554;5.704;2022-12-29T12:06:02;7.10;;;3.58;;
50495;SDS011;38806;51.554;5.704;2022-12-29T12:10:11;12.70;;;3.22;;
50495;SDS011;38806;51.554;5.704;2022-12-29T12:12:21;14.05;;;3.58;;
50495;SDS011;38806;51.554;5.704;2022-12-29T12:14:34;8.88;;;2.40;;
50495;SDS011;38806;51.554;5.704;2022-12-29T12:18:44;8.30;;;3.05;;
50495;SDS011;38806;51.554;5.704;2022-12-29T12:22:49;13.45;;;3.17;;
50495;SDS011;38806;51.554;5.704;2022-12-29T12:25:11;8.75;;;2.35;;
50495;SDS011;38806;51.554;5.704;2022-12-29T12:29:25;11.63;;;2.70;;
50495;SDS011;38806;51.554;5.704;2022-12-29T12:33:41;12.13;;;2.75;;
50495;SDS011;38806;51.554;5.704;2022-12-29T12:35:44;12.65;;;2.80;;
50495;SDS011;38806;51.554;5.704;2022-12-29T12:37:50;11.63;;;2.92;;
50495;SDS011;38806;51.554;5.704;2022-12-29T12:44:30;11.93;;;2.85;;
50495;SDS011;38806;51.554;5.704;2022-12-29T12:53:18;9.98;;;3.05;;
50495;SDS011;38806;51.554;5.704;2022-12-29T12:57:44;10.77;;;1.50;;
50495;SDS011;38806;51.554;5.704;2022-12-29T13:01:54;8.20;;;1.92;;
50495;SDS011;38806;51.554;5.704;2022-12-29T13:04:32;6.63;;;2.78;;
50495;SDS011;38806;51.554;5.704;2022-12-29T13:10:49;8.98;;;3.17;;
50495;SDS011;38806;51.554;5.704;2022-12-29T13:15:34;6.30;;;1.77;;
50495;SDS011;38806;51.554;5.704;2022-12-29T13:20:40;11.85;;;2.70;;
50495;SDS011;38806;51.554;5.704;2022-12-29T13:22:32;8.20;;;1.85;;
50495;SDS011;38806;51.554;5.704;2022-12-29T13:26:35;8.60;;;2.33;;
50495;SDS011;38806;51.554;5.704;2022-12-29T13:30:53;8.15;;;2.88;;
50495;SDS011;38806;51.554;5.704;2022-12-29T13:35:26;9.63;;;2.50;;
50495;SDS011;38806;51.554;5.704;2022-12-29T13:37:28;11.13;;;3.05;;
50495;SDS011;38806;51.554;5.704;2022-12-29T13:39:34;7.05;;;2.60;;
50495;SDS011;38806;51.554;5.704;2022-12-29T13:41:45;12.52;;;3.50;;
50495;SDS011;38806;51.554;5.704;2022-12-29T13:43:47;10.48;;;2.83;;
50495;SDS011;38806;51.554;5.704;2022-12-29T13:45:50;8.40;;;3.00;;
50495;SDS011;38806;51.554;5.704;2022-12-29T13:49:57;11.32;;;3.35;;
50495;SDS011;38806;51.554;5.704;2022-12-29T13:56:31;12.57;;;2.33;;
50495;SDS011;38806;51.554;5.704;2022-12-29T14:01:03;11.57;;;3.33;;
50495;SDS011;38806;51.554;5.704;2022-12-29T14:05:27;6.63;;;2.40;;
50495;SDS011;38806;51.554;5.704;2022-12-29T14:07:28;6.13;;;2.50;;